createdAt,value
2019-04-16T00:01:34.915Z,47.45
2019-04-16T00:05:48.053Z,47.67
2019-04-16T00:10:06.203Z,47.39
2019-04-16T00:14:31.730Z,48.10
2019-04-16T00:18:38.424Z,47.90
2019-04-16T00:22:52.013Z,48.03
2019-04-16T00:26:59.994Z,48.70
2019-04-16T00:31:07.010Z,48.31
2019-04-16T00:35:15.768Z,48.64
2019-04-16T00:39:24.809Z,49.29
2019-04-16T00:43:30.824Z,49.31
2019-04-16T00:47:37.657Z,49.62
2019-04-16T00:51:44.413Z,49.90
2019-04-16T00:55:51.173Z,49.86
2019-04-16T00:59:58.125Z,49.84
2019-04-16T01:04:05.542Z,49.89
2019-04-16T01:08:12.786Z,50.11
2019-04-16T01:12:19.623Z,50.48
2019-04-16T01:16:26.504Z,50.42
2019-04-16T01:20:34.677Z,50.96
2019-04-16T01:24:41.449Z,51.11
2019-04-16T01:29:07.130Z,50.81
2019-04-16T01:33:19.994Z,51.23
2019-04-16T01:38:00.757Z,50.66
2019-04-16T01:42:07.592Z,50.59
2019-04-16T01:46:14.336Z,50.76
2019-04-16T01:50:21.067Z,50.73
2019-04-16T01:54:27.858Z,50.29
2019-04-16T01:58:34.910Z,50.73
2019-04-16T02:02:43.538Z,50.82
2019-04-16T02:06:50.938Z,50.29
2019-04-16T02:10:58.186Z,50.46
2019-04-16T02:15:07.512Z,50.41
2019-04-16T02:19:14.633Z,49.95
2019-04-16T02:23:21.561Z,50.25
2019-04-16T02:27:29.681Z,50.37
2019-04-16T02:31:36.444Z,50.88
2019-04-16T02:35:43.298Z,50.53
2019-04-16T02:39:50.293Z,50.63
2019-04-16T02:43:57.339Z,50.70
2019-04-16T02:48:05.516Z,51.42
2019-04-16T02:52:37.066Z,51.43
2019-04-16T02:57:01.437Z,52.11
2019-04-16T03:01:25.797Z,51.84
2019-04-16T03:05:35.211Z,52.19
2019-04-16T03:09:42.204Z,52.30
2019-04-16T03:13:49.315Z,52.40
2019-04-16T03:17:56.115Z,52.34
2019-04-16T03:22:03.355Z,52.57
2019-04-16T03:26:16.375Z,52.90
2019-04-16T03:30:19.957Z,52.84
2019-04-16T03:34:26.711Z,52.92
2019-04-16T03:38:36.754Z,52.95
2019-04-16T03:42:41.890Z,52.50
2019-04-16T03:46:48.675Z,52.25
2019-04-16T03:50:55.358Z,52.71
2019-04-16T03:55:02.236Z,53.25
2019-04-16T03:59:11.825Z,53.52
2019-04-16T04:03:17.458Z,53.78
2019-04-16T04:07:24.185Z,54.45
2019-04-16T04:11:31.887Z,54.26
2019-04-16T04:15:38.638Z,54.16
2019-04-16T04:19:46.132Z,54.31
2019-04-16T04:23:53.590Z,54.06
2019-04-16T04:28:00.303Z,53.90
2019-04-16T04:32:07.060Z,54.24
2019-04-16T04:36:13.810Z,53.90
2019-04-16T04:40:20.506Z,54.02
2019-04-16T04:44:36.935Z,54.54
2019-04-16T04:48:42.588Z,53.95
2019-04-16T04:52:53.534Z,54.32
2019-04-16T04:57:03.373Z,53.89
2019-04-16T05:01:13.357Z,54.18
2019-04-16T05:05:30.726Z,53.90
2019-04-16T05:09:37.513Z,53.64
2019-04-16T05:13:44.496Z,57.11
2019-04-16T05:17:51.229Z,54.17
2019-04-16T05:21:58.001Z,53.64
2019-04-16T05:26:05.395Z,53.43
2019-04-16T05:30:12.351Z,53.38
2019-04-16T05:34:19.055Z,53.31
2019-04-16T05:38:25.775Z,53.12
2019-04-16T05:42:32.539Z,53.05
2019-04-16T05:46:41.378Z,56.86
2019-04-16T05:50:47.797Z,52.51
2019-04-16T05:55:17.962Z,52.16
2019-04-16T05:59:22.774Z,51.75
2019-04-16T06:03:29.477Z,51.80
2019-04-16T06:07:37.979Z,51.57
2019-04-16T06:11:44.743Z,51.65
2019-04-16T06:16:01.816Z,50.64
2019-04-16T06:20:27.492Z,50.21
2019-04-16T06:24:51.459Z,50.56
2019-04-16T06:29:11.532Z,49.31
2019-04-16T06:33:22.495Z,48.88
2019-04-16T06:37:35.067Z,48.74
2019-04-16T06:42:01.064Z,48.23
2019-04-16T06:46:33.827Z,47.83
2019-04-16T06:51:02.403Z,47.29
2019-04-16T06:55:28.923Z,46.99
2019-04-16T06:59:59.499Z,46.74
2019-04-16T07:04:30.923Z,46.49
2019-04-16T07:08:59.598Z,46.57
2019-04-16T07:13:10.247Z,46.18
2019-04-16T07:17:17.309Z,45.22
2019-04-16T07:21:23.315Z,45.17
2019-04-16T07:25:30.524Z,44.67
2019-04-16T07:30:04.891Z,44.60
2019-04-16T07:34:27.387Z,43.53
2019-04-16T07:38:50.063Z,43.79
2019-04-16T07:43:30.948Z,43.19
2019-04-16T07:48:09.717Z,42.73
2019-04-16T07:52:35.900Z,41.58
2019-04-16T07:56:44.901Z,41.39
2019-04-16T08:00:51.783Z,41.55
2019-04-16T08:04:58.574Z,42.42
2019-04-16T08:09:07.490Z,41.50
2019-04-16T08:13:19.325Z,41.37
2019-04-16T08:17:26.191Z,40.42
2019-04-16T08:21:32.911Z,40.04
2019-04-16T08:25:39.643Z,39.09
2019-04-16T08:29:46.759Z,38.07
2019-04-16T08:33:54.519Z,38.54
2019-04-16T08:38:01.730Z,37.47
2019-04-16T08:42:08.569Z,35.85
2019-04-16T08:46:15.401Z,34.28
2019-04-16T08:50:25.888Z,33.15
2019-04-16T08:54:31.722Z,32.96
2019-04-16T08:58:39.140Z,32.44
2019-04-16T09:02:46.000Z,32.11
2019-04-16T09:06:52.668Z,31.90
2019-04-16T09:11:00.256Z,31.81
2019-04-16T09:15:09.968Z,30.13
2019-04-16T09:19:17.774Z,30.61
2019-04-16T09:23:26.588Z,29.74
2019-04-16T09:27:45.039Z,29.18
2019-04-16T09:32:04.272Z,28.48
2019-04-16T09:36:42.042Z,29.07
2019-04-16T09:41:07.649Z,28.72
2019-04-16T09:45:18.406Z,28.01
2019-04-16T09:49:26.172Z,27.27
2019-04-16T09:53:34.530Z,26.55
2019-04-16T09:57:41.302Z,27.60
2019-04-16T10:01:50.962Z,27.20
2019-04-16T10:05:57.756Z,26.92
2019-04-16T10:10:05.277Z,26.48
2019-04-16T10:14:12.086Z,26.23
2019-04-16T10:18:18.860Z,25.68
2019-04-16T10:22:25.594Z,26.11
2019-04-16T10:26:32.328Z,26.88
2019-04-16T10:30:46.859Z,26.26
2019-04-16T10:34:54.261Z,26.04
2019-04-16T10:39:20.006Z,27.13
2019-04-16T10:44:00.849Z,26.92
2019-04-16T10:48:23.200Z,26.08
2019-04-16T10:52:47.961Z,26.66
2019-04-16T10:57:25.848Z,25.38
2019-04-16T11:01:39.536Z,24.71
2019-04-16T11:05:56.865Z,24.25
2019-04-16T11:09:59.990Z,24.87
2019-04-16T11:14:06.809Z,23.24
2019-04-16T11:18:14.570Z,24.29
2019-04-16T11:22:21.307Z,23.62
2019-04-16T11:26:28.100Z,22.26
2019-04-16T11:30:40.934Z,23.22
2019-04-16T11:34:48.636Z,21.79
2019-04-16T11:38:55.373Z,21.51
2019-04-16T11:43:03.838Z,22.31
2019-04-16T11:47:10.811Z,21.49
2019-04-16T11:51:17.711Z,21.98
2019-04-16T11:55:24.408Z,22.10
2019-04-16T11:59:31.186Z,21.75
2019-04-16T12:03:49.403Z,22.75
2019-04-16T12:08:18.943Z,23.23
2019-04-16T12:12:52.838Z,23.56
2019-04-16T12:17:18.688Z,22.32
2019-04-16T12:21:53.345Z,22.86
2019-04-16T12:26:20.463Z,23.62
2019-04-16T12:30:55.118Z,24.41
2019-04-16T12:35:26.653Z,23.34
2019-04-16T12:39:45.693Z,23.55
2019-04-16T12:43:58.298Z,24.18
2019-04-16T12:48:14.392Z,24.01
2019-04-16T12:52:40.076Z,24.72
2019-04-16T12:57:17.586Z,23.84
2019-04-16T13:01:43.296Z,24.54
2019-04-16T13:06:12.247Z,23.45
2019-04-16T13:10:44.334Z,22.95
2019-04-16T13:15:13.515Z,23.99
2019-04-16T13:19:45.284Z,23.29
2019-04-16T13:23:58.643Z,22.68
2019-04-16T13:28:05.703Z,23.75
2019-04-16T13:32:13.567Z,23.95
2019-04-16T13:36:20.214Z,23.10
2019-04-16T13:40:27.827Z,24.12
2019-04-16T13:44:40.691Z,24.76
2019-04-16T13:48:52.098Z,24.63
2019-04-16T13:53:07.384Z,24.80
2019-04-16T13:57:16.960Z,26.46
2019-04-16T14:01:26.566Z,26.23
2019-04-16T14:05:37.549Z,26.80
2019-04-16T14:09:44.259Z,25.68
2019-04-16T14:13:50.402Z,26.19
2019-04-16T14:17:59.762Z,26.72
2019-04-16T14:22:06.025Z,26.27
2019-04-16T14:26:12.811Z,27.11
2019-04-16T14:30:27.574Z,27.29
2019-04-16T14:35:00.866Z,28.84
2019-04-16T14:39:36.541Z,28.57
2019-04-16T14:43:45.982Z,28.98
2019-04-16T14:47:52.961Z,29.84
2019-04-16T14:52:02.045Z,30.47
2019-04-16T14:56:15.632Z,30.07
2019-04-16T15:00:36.171Z,30.17
2019-04-16T15:05:00.468Z,30.54
2019-04-16T15:09:33.103Z,31.84
2019-04-16T15:14:00.512Z,31.78
2019-04-16T15:18:26.794Z,31.51
2019-04-16T15:22:54.639Z,31.68
2019-04-16T15:27:20.196Z,31.71
2019-04-16T15:31:41.838Z,31.60
2019-04-16T15:35:53.489Z,32.00
2019-04-16T15:40:07.003Z,31.68
2019-04-16T15:44:25.390Z,32.14
2019-04-16T15:48:44.443Z,32.62
2019-04-16T15:53:03.273Z,32.13
2019-04-16T15:57:31.449Z,32.33
2019-04-16T16:01:51.948Z,31.81
2019-04-16T16:06:04.285Z,32.53
2019-04-16T16:10:19.495Z,32.65
2019-04-16T16:14:26.257Z,32.63
2019-04-16T16:18:35.715Z,32.77
2019-04-16T16:22:41.386Z,33.62
2019-04-16T16:26:48.107Z,32.90
2019-04-16T16:30:54.870Z,32.43
2019-04-16T16:35:01.549Z,32.29
2019-04-16T16:39:09.638Z,32.61
2019-04-16T16:43:18.050Z,32.95
2019-04-16T16:47:28.969Z,33.50
2019-04-16T16:51:35.948Z,33.62
2019-04-16T16:55:46.250Z,33.76
2019-04-16T16:59:57.950Z,35.52
2019-04-16T17:04:16.426Z,36.16
2019-04-16T17:08:23.247Z,36.24
2019-04-16T17:12:30.038Z,36.54
2019-04-16T17:16:37.235Z,37.04
2019-04-16T17:20:43.861Z,37.75
2019-04-16T17:24:50.602Z,37.60
2019-04-16T17:28:58.281Z,37.55
2019-04-16T17:33:05.152Z,37.38
2019-04-16T17:37:11.823Z,37.51
2019-04-16T17:41:24.385Z,37.65
2019-04-16T17:46:05.340Z,37.91
2019-04-16T17:50:40.320Z,38.23
2019-04-16T17:54:51.975Z,38.51
2019-04-16T17:59:14.438Z,38.85
2019-04-16T18:03:37.595Z,39.12
2019-04-16T18:08:09.510Z,39.13
2019-04-16T18:12:35.956Z,39.02
2019-04-16T18:16:54.132Z,39.26
2019-04-16T18:21:21.679Z,39.46
2019-04-16T18:25:55.521Z,39.80
2019-04-16T18:30:38.756Z,39.73
2019-04-16T18:35:05.863Z,39.87
2019-04-16T18:39:30.188Z,40.16
2019-04-16T18:43:54.275Z,40.08
2019-04-16T18:48:13.735Z,40.48
2019-04-16T18:52:18.481Z,40.75
2019-04-16T18:56:25.153Z,41.53
2019-04-16T19:00:52.741Z,44.58
2019-04-16T19:04:59.715Z,45.12
2019-04-16T19:09:08.434Z,45.94
2019-04-16T19:13:19.939Z,46.05
2019-04-16T19:17:25.833Z,47.32
2019-04-16T19:21:32.569Z,47.85
2019-04-16T19:25:39.250Z,47.59
2019-04-16T19:29:46.165Z,47.99
2019-04-16T19:33:53.076Z,48.08
2019-04-16T19:38:02.348Z,47.93
2019-04-16T19:42:11.201Z,48.33
2019-04-16T19:46:17.053Z,48.24
2019-04-16T19:50:23.749Z,48.53
2019-04-16T19:54:31.801Z,48.99
2019-04-16T19:58:38.594Z,49.54
2019-04-16T20:02:45.360Z,49.69
2019-04-16T20:06:52.210Z,49.73
2019-04-16T20:10:58.894Z,49.98
2019-04-16T20:15:09.350Z,50.26
2019-04-16T20:19:14.499Z,50.65
2019-04-16T20:23:21.165Z,51.10
2019-04-16T20:27:28.171Z,51.05
2019-04-16T20:31:36.583Z,50.73
2019-04-16T20:35:43.347Z,50.79
2019-04-16T20:39:50.014Z,51.21
2019-04-16T20:43:57.084Z,50.90
2019-04-16T20:48:03.782Z,51.19
2019-04-16T20:52:10.495Z,51.40
2019-04-16T20:56:20.477Z,51.49
2019-04-16T21:00:28.899Z,51.83
2019-04-16T21:04:35.527Z,52.22
2019-04-16T21:08:42.296Z,53.22
2019-04-16T21:12:48.950Z,54.48
2019-04-16T21:16:55.696Z,54.92
2019-04-16T21:21:02.544Z,55.49
2019-04-16T21:25:13.800Z,55.37
2019-04-16T21:29:26.325Z,56.58
2019-04-16T21:33:49.177Z,57.08
2019-04-16T21:38:17.717Z,57.06
2019-04-16T21:42:25.466Z,56.88
2019-04-16T21:46:32.508Z,57.52
2019-04-16T21:50:39.507Z,57.78
2019-04-16T21:54:46.304Z,58.10
2019-04-16T21:58:53.083Z,58.69
2019-04-16T22:02:59.791Z,58.01
2019-04-16T22:07:07.973Z,59.18
2019-04-16T22:11:15.495Z,59.35
2019-04-16T22:15:25.208Z,59.23
2019-04-16T22:19:30.890Z,59.47
2019-04-16T22:23:37.576Z,59.86
2019-04-16T22:27:44.314Z,59.89
2019-04-16T22:31:52.815Z,59.43
2019-04-16T22:35:59.576Z,59.42
2019-04-16T22:40:28.370Z,59.52
2019-04-16T22:44:54.398Z,59.58
2019-04-16T22:49:01.729Z,60.07
2019-04-16T22:53:08.401Z,59.72
2019-04-16T22:57:16.313Z,59.78
2019-04-16T23:01:25.073Z,60.38
2019-04-16T23:05:32.000Z,60.04
2019-04-16T23:09:38.796Z,59.71
2019-04-16T23:13:45.559Z,60.13
2019-04-16T23:17:55.288Z,60.05
2019-04-16T23:22:02.090Z,60.35
2019-04-16T23:26:08.796Z,60.75
2019-04-16T23:30:15.746Z,60.69
2019-04-16T23:34:24.070Z,60.85
2019-04-16T23:38:31.682Z,61.26
2019-04-16T23:42:41.331Z,61.24
2019-04-16T23:47:09.225Z,61.18
2019-04-16T23:51:28.665Z,61.05
2019-04-16T23:56:10.072Z,61.23
